Time;durP1;ratioP1;P1;durP2;ratioP2;P2;SDS_P1;SDS_P2;PMS_P1;PMS_P2;Temp;Humidity;BMP_temperature;BMP_pressure;BME280_temperature;BME280_humidity;BME280_pressure;Samples;Min_cycle;Max_cycle;Signal;HPM_P1;HPM_P2
2022/07/22 00:01:06;;;;;;;12.43;9.97;;;22.90;68.60;;;;;;5002764;28;20487;-78
2022/07/22 00:03:34;;;;;;;13.67;10.87;;;22.90;68.60;;;;;;5020732;28;20463;-77
2022/07/22 00:06:01;;;;;;;14.60;9.43;;;22.90;68.70;;;;;;5023785;28;20452;-80
2022/07/22 00:08:29;;;;;;;13.90;9.30;;;22.80;68.80;;;;;;5021817;28;20457;-80
2022/07/22 00:10:57;;;;;;;13.80;9.13;;;22.80;68.90;;;;;;5026781;28;21007;-77
2022/07/22 00:13:26;;;;;;;15.43;9.77;;;22.80;68.90;;;;;;5016893;28;20460;-77
2022/07/22 00:15:55;;;;;;;14.43;9.90;;;22.80;68.90;;;;;;5016438;28;20503;-79
2022/07/22 00:18:23;;;;;;;13.00;9.67;;;22.70;68.90;;;;;;5021127;28;20896;-79
2022/07/22 00:20:51;;;;;;;12.57;10.37;;;22.70;69.00;;;;;;5018278;28;20529;-79
2022/07/22 00:23:19;;;;;;;14.60;11.03;;;22.70;69.00;;;;;;5020260;28;20460;-79
2022/07/22 00:25:47;;;;;;;14.57;11.07;;;22.60;69.10;;;;;;5021993;28;20463;-79
2022/07/22 00:28:15;;;;;;;12.47;10.10;;;22.60;69.10;;;;;;5013401;28;20449;-79
2022/07/22 00:30:43;;;;;;;12.60;9.87;;;22.50;69.20;;;;;;5017967;28;20473;-79
2022/07/22 00:33:13;;;;;;;17.10;10.67;;;22.50;69.20;;;;;;5021800;28;20570;-79
2022/07/22 00:35:41;;;;;;;11.57;9.93;;;22.40;69.30;;;;;;5019363;28;20887;-78
2022/07/22 00:38:10;;;;;;;13.27;9.30;;;22.40;69.50;;;;;;5020195;28;20505;-78
2022/07/22 00:40:38;;;;;;;11.53;9.73;;;22.40;69.60;;;;;;5021036;28;20918;-78
2022/07/22 00:43:06;;;;;;;14.37;9.50;;;22.30;69.60;;;;;;5022612;28;20482;-78
2022/07/22 00:45:34;;;;;;;14.77;9.83;;;22.30;69.70;;;;;;5021714;28;20909;-78
2022/07/22 00:48:03;;;;;;;14.20;10.47;;;22.30;70.00;;;;;;5020155;28;20472;-79
2022/07/22 00:50:32;;;;;;;13.93;10.40;;;22.30;70.10;;;;;;5020169;28;20459;-79
2022/07/22 00:53:02;;;;;;;13.93;10.03;;;22.30;70.20;;;;;;5021744;28;20552;-79
2022/07/22 00:55:30;;;;;;;14.77;10.83;;;22.30;70.20;;;;;;5006803;28;21410;-79
2022/07/22 00:57:58;;;;;;;12.10;10.10;;;22.30;70.20;;;;;;5024303;28;21003;-79
2022/07/22 01:00:26;;;;;;;12.30;9.23;;;22.30;70.40;;;;;;5025810;28;20484;-79
2022/07/22 01:02:54;;;;;;;13.10;9.40;;;22.30;70.40;;;;;;5026730;28;20459;-79
2022/07/22 01:05:22;;;;;;;15.00;10.23;;;22.30;70.30;;;;;;5028004;28;20458;-79
2022/07/22 01:07:52;;;;;;;14.33;9.80;;;22.30;70.30;;;;;;5031141;28;20829;-78
2022/07/22 01:10:20;;;;;;;13.60;10.30;;;22.30;70.50;;;;;;5023577;28;20450;-79
2022/07/22 01:12:48;;;;;;;13.33;9.73;;;22.30;70.40;;;;;;5030395;28;21035;-78
2022/07/22 01:15:16;;;;;;;13.07;9.60;;;22.20;70.40;;;;;;5024392;28;20470;-79
2022/07/22 01:17:44;;;;;;;12.00;8.97;;;22.20;70.50;;;;;;5020894;28;20524;-79
2022/07/22 01:20:14;;;;;;;16.13;10.70;;;22.20;70.60;;;;;;5031654;28;20500;-79
2022/07/22 01:22:44;;;;;;;13.10;9.27;;;22.20;70.60;;;;;;5035957;28;20505;-78
2022/07/22 01:25:13;;;;;;;13.10;9.80;;;22.20;70.70;;;;;;5018165;28;20497;-78
2022/07/22 01:27:40;;;;;;;13.30;9.17;;;22.30;70.70;;;;;;5038495;28;20473;-78
2022/07/22 01:30:10;;;;;;;12.07;9.07;;;22.20;70.80;;;;;;5022357;28;20454;-77
2022/07/22 01:32:38;;;;;;;13.70;9.60;;;22.30;70.70;;;;;;5032076;28;20545;-78
2022/07/22 01:35:07;;;;;;;12.30;9.73;;;22.20;70.50;;;;;;5023872;28;20548;-79
2022/07/22 01:37:37;;;;;;;11.87;8.93;;;22.20;70.50;;;;;;5031930;28;20489;-78
2022/07/22 01:40:05;;;;;;;12.47;9.87;;;22.10;70.50;;;;;;5012388;28;20460;-79
2022/07/22 01:42:34;;;;;;;18.87;11.27;;;22.10;70.50;;;;;;5020913;28;20464;-79
2022/07/22 01:45:02;;;;;;;13.50;9.17;;;22.00;70.50;;;;;;5017783;28;20505;-79
2022/07/22 01:47:30;;;;;;;12.87;9.43;;;22.00;70.50;;;;;;5024832;28;20578;-78
2022/07/22 01:49:58;;;;;;;13.43;9.67;;;21.90;70.50;;;;;;5013089;28;20470;-79
2022/07/22 01:52:27;;;;;;;12.47;9.47;;;21.90;70.50;;;;;;5028185;28;20456;-78
2022/07/22 01:54:56;;;;;;;12.27;9.17;;;21.90;70.50;;;;;;5025289;28;20471;-79
2022/07/22 01:57:24;;;;;;;12.80;9.63;;;21.80;70.60;;;;;;5029635;28;20484;-79
2022/07/22 01:59:53;;;;;;;14.20;10.43;;;21.80;70.70;;;;;;5016513;28;20464;-79
2022/07/22 02:02:23;;;;;;;14.17;11.13;;;21.80;70.70;;;;;;5005031;28;20511;-78
2022/07/22 02:04:51;;;;;;;14.53;9.80;;;21.80;70.60;;;;;;5022736;28;20524;-79
2022/07/22 02:07:19;;;;;;;15.43;10.13;;;21.70;70.60;;;;;;5025484;28;20601;-78
2022/07/22 02:09:47;;;;;;;15.40;11.27;;;21.60;70.60;;;;;;5020552;28;21106;-79
2022/07/22 02:12:16;;;;;;;16.47;11.27;;;21.60;70.90;;;;;;5018151;28;20463;-78
2022/07/22 02:14:47;;;;;;;13.90;10.10;;;21.60;71.00;;;;;;5023743;28;20952;-79
2022/07/22 02:17:15;;;;;;;13.40;10.20;;;21.50;70.90;;;;;;5010852;28;20491;-79
2022/07/22 02:19:43;;;;;;;12.50;8.70;;;21.50;70.90;;;;;;5020369;28;20491;-79
2022/07/22 02:22:13;;;;;;;17.17;10.53;;;21.40;70.90;;;;;;5017558;28;20456;-79
2022/07/22 02:24:41;;;;;;;14.90;10.17;;;21.40;71.00;;;;;;5030488;28;20468;-79
2022/07/22 02:27:09;;;;;;;14.53;10.17;;;21.40;71.10;;;;;;5023151;28;20478;-79
2022/07/22 02:29:39;;;;;;;13.57;10.07;;;21.40;71.10;;;;;;5013707;28;20460;-79
2022/07/22 02:32:07;;;;;;;12.90;10.07;;;21.30;71.10;;;;;;5031450;28;21068;-79
2022/07/22 02:34:45;;;;;;;15.80;10.13;;;21.30;71.10;;;;;;5024134;28;20480;-79
2022/07/22 02:37:13;;;;;;;15.17;9.50;;;21.30;71.20;;;;;;5013843;28;20483;-77
2022/07/22 02:39:41;;;;;;;13.73;9.90;;;21.20;71.30;;;;;;5025842;28;20515;-78
2022/07/22 02:42:09;;;;;;;14.87;10.83;;;21.20;71.40;;;;;;5027277;28;20800;-78
2022/07/22 02:44:39;;;;;;;16.53;10.03;;;21.20;71.50;;;;;;5024446;28;20585;-79
2022/07/22 02:47:15;;;;;;;15.47;9.90;;;21.20;71.60;;;;;;5024270;28;20476;-78
2022/07/22 02:49:44;;;;;;;14.03;9.70;;;21.20;71.60;;;;;;5010725;28;20461;-79
2022/07/22 02:52:13;;;;;;;12.50;9.17;;;21.20;71.70;;;;;;5026298;28;20518;-79
2022/07/22 02:54:41;;;;;;;14.93;10.43;;;21.20;71.70;;;;;;5021556;28;21000;-78
2022/07/22 02:57:09;;;;;;;12.00;9.93;;;21.20;71.60;;;;;;5021866;28;20490;-78
2022/07/22 02:59:38;;;;;;;14.47;10.50;;;21.20;71.50;;;;;;5007609;28;20476;-78
2022/07/22 03:02:07;;;;;;;14.60;11.00;;;21.10;71.50;;;;;;5018816;28;20510;-78
2022/07/22 03:04:35;;;;;;;13.13;10.60;;;21.10;71.50;;;;;;5021285;28;20476;-78
2022/07/22 03:07:03;;;;;;;14.20;9.90;;;21.00;71.60;;;;;;5002859;28;20543;-78
2022/07/22 03:09:33;;;;;;;19.73;10.70;;;21.00;71.60;;;;;;5007428;28;20506;-78
2022/07/22 03:12:02;;;;;;;15.27;10.33;;;21.00;71.60;;;;;;5009681;28;20514;-78
2022/07/22 03:14:30;;;;;;;14.50;10.83;;;21.00;71.60;;;;;;5008228;28;20870;-78
2022/07/22 03:16:58;;;;;;;13.93;10.90;;;21.00;71.80;;;;;;5031132;28;20477;-78
2022/07/22 03:19:27;;;;;;;16.67;11.33;;;20.90;71.90;;;;;;5007784;28;20503;-78
2022/07/22 03:21:57;;;;;;;13.77;10.63;;;21.00;71.90;;;;;;5018884;28;20501;-79
2022/07/22 03:24:25;;;;;;;13.90;9.80;;;20.90;71.90;;;;;;5028067;28;20559;-78
2022/07/22 03:26:53;;;;;;;16.60;11.53;;;20.90;71.80;;;;;;5007168;28;20494;-77
2022/07/22 03:29:21;;;;;;;14.40;10.23;;;20.90;71.90;;;;;;5021128;28;20844;-79
2022/07/22 03:31:49;;;;;;;14.53;11.30;;;20.80;71.90;;;;;;5017401;28;20488;-78
2022/07/22 03:34:26;;;;;;;13.93;10.10;;;20.80;72.00;;;;;;5022411;28;20482;-79
2022/07/22 03:37:03;;;;;;;14.77;10.53;;;20.80;72.20;;;;;;5013798;28;20908;-78
2022/07/22 03:39:32;;;;;;;13.53;11.20;;;20.80;72.20;;;;;;5022408;28;20477;-78
2022/07/22 03:42:00;;;;;;;14.57;11.10;;;20.70;72.20;;;;;;5022868;28;20463;-79
2022/07/22 03:44:30;;;;;;;15.00;10.77;;;20.70;72.20;;;;;;5010978;28;20463;-78
2022/07/22 03:46:58;;;;;;;15.27;11.00;;;20.70;72.30;;;;;;5012007;28;20494;-79
2022/07/22 03:49:29;;;;;;;13.73;10.63;;;20.60;72.40;;;;;;5018856;28;21030;-78
2022/07/22 03:51:58;;;;;;;14.50;9.93;;;20.60;72.50;;;;;;5012066;28;20495;-79
2022/07/22 03:54:26;;;;;;;14.87;10.67;;;20.70;72.70;;;;;;5021537;28;20469;-79
2022/07/22 03:56:55;;;;;;;14.43;10.27;;;20.70;72.60;;;;;;5021584;28;20988;-79
2022/07/22 03:59:23;;;;;;;13.53;9.97;;;20.70;72.60;;;;;;5002583;28;20487;-79
2022/07/22 04:01:51;;;;;;;14.13;10.30;;;20.70;72.40;;;;;;5008745;28;20589;-78
2022/07/22 04:04:19;;;;;;;14.07;11.23;;;20.70;72.20;;;;;;5023694;28;20499;-78
2022/07/22 04:06:51;;;;;;;14.97;11.70;;;20.60;72.20;;;;;;5015722;28;20577;-78
2022/07/22 04:09:24;;;;;;;14.30;10.67;;;20.60;72.30;;;;;;5024789;28;20459;-79
2022/07/22 04:11:52;;;;;;;15.43;11.17;;;20.60;72.30;;;;;;5009856;28;20462;-78
2022/07/22 04:14:21;;;;;;;15.17;10.63;;;20.60;72.50;;;;;;5021217;28;20459;-79
2022/07/22 04:16:49;;;;;;;16.13;10.93;;;20.60;72.60;;;;;;5019462;28;20521;-78
2022/07/22 04:19:17;;;;;;;14.87;9.80;;;20.60;72.60;;;;;;5011523;28;20524;-79
2022/07/22 04:21:52;;;;;;;14.70;11.10;;;20.60;72.60;;;;;;5012305;28;20492;-78
2022/07/22 04:24:22;;;;;;;14.30;10.50;;;20.60;72.60;;;;;;5005961;28;20466;-78
2022/07/22 04:26:50;;;;;;;15.57;10.30;;;20.70;72.60;;;;;;5025227;28;21049;-80
2022/07/22 04:29:18;;;;;;;16.90;10.53;;;20.70;72.50;;;;;;5018667;28;20443;-80
2022/07/22 04:31:46;;;;;;;13.20;9.67;;;20.70;72.50;;;;;;5022228;28;20586;-80
2022/07/22 04:34:18;;;;;;;13.50;9.70;;;20.70;72.60;;;;;;5016403;28;20498;-80
2022/07/22 04:36:48;;;;;;;16.33;10.23;;;20.70;72.70;;;;;;5017874;28;20483;-78
2022/07/22 04:39:18;;;;;;;15.00;10.33;;;20.70;72.70;;;;;;5015450;28;20986;-78
2022/07/22 04:41:54;;;;;;;15.60;10.00;;;20.70;72.80;;;;;;5007706;28;21039;-78
2022/07/22 04:44:23;;;;;;;15.50;11.73;;;20.80;72.90;;;;;;5011014;28;20478;-78
2022/07/22 04:46:51;;;;;;;15.50;10.67;;;20.80;73.00;;;;;;5009158;28;20569;-78
2022/07/22 04:49:19;;;;;;;12.20;9.60;;;20.80;73.10;;;;;;5025589;28;20458;-78
2022/07/22 04:51:47;;;;;;;14.50;11.37;;;20.90;73.30;;;;;;5019890;28;20461;-78
2022/07/22 04:54:27;;;;;;;13.60;10.27;;;20.90;73.30;;;;;;5012090;28;20459;-78
2022/07/22 04:56:58;;;;;;;19.43;13.77;;;21.00;73.40;;;;;;5022274;28;21279;-78
2022/07/22 04:59:26;;;;;;;14.30;10.73;;;21.00;73.50;;;;;;5026665;28;20509;-78
2022/07/22 05:01:54;;;;;;;16.93;11.83;;;21.10;73.50;;;;;;5023729;28;20586;-78
2022/07/22 05:04:22;;;;;;;14.17;10.60;;;21.10;73.60;;;;;;5028471;28;20461;-78
2022/07/22 05:06:52;;;;;;;15.37;11.30;;;21.10;73.80;;;;;;5023184;28;20491;-78
2022/07/22 05:09:21;;;;;;;16.47;11.30;;;21.20;73.70;;;;;;5020982;28;20464;-78
2022/07/22 05:11:50;;;;;;;16.73;11.80;;;21.20;73.80;;;;;;5031560;28;20485;-78
2022/07/22 05:14:21;;;;;;;14.67;10.93;;;21.20;73.90;;;;;;4999131;28;21037;-78
2022/07/22 05:16:49;;;;;;;13.30;10.70;;;21.20;74.00;;;;;;5028001;28;20476;-78
2022/07/22 05:19:17;;;;;;;15.27;9.77;;;21.30;74.10;;;;;;5026749;28;20490;-78
2022/07/22 05:21:46;;;;;;;20.37;11.13;;;21.30;74.10;;;;;;5010300;28;20467;-78
2022/07/22 05:24:14;;;;;;;15.50;10.17;;;21.40;74.20;;;;;;4998804;28;20483;-79
2022/07/22 05:26:42;;;;;;;17.93;11.03;;;21.40;74.20;;;;;;5031837;28;20480;-78
2022/07/22 05:29:11;;;;;;;15.93;11.20;;;21.50;74.10;;;;;;5022445;28;20548;-79
2022/07/22 05:31:39;;;;;;;15.53;10.10;;;21.50;74.10;;;;;;5012186;28;20503;-78
2022/07/22 05:34:07;;;;;;;13.90;10.80;;;21.50;74.10;;;;;;5025870;28;20473;-78
2022/07/22 05:36:41;;;;;;;13.37;9.43;;;21.50;73.90;;;;;;5009390;28;20515;-78
2022/07/22 05:39:10;;;;;;;14.57;10.60;;;21.50;73.90;;;;;;5006546;28;20509;-79
2022/07/22 05:41:39;;;;;;;15.17;10.60;;;21.50;74.00;;;;;;5008737;28;20600;-78
2022/07/22 05:44:08;;;;;;;15.40;11.47;;;21.50;74.00;;;;;;5026681;28;20904;-78
2022/07/22 05:46:38;;;;;;;13.60;10.30;;;21.50;73.90;;;;;;5004803;28;20485;-78
2022/07/22 05:49:07;;;;;;;14.00;9.50;;;21.40;73.80;;;;;;5028312;28;20464;-78
2022/07/22 05:51:46;;;;;;;15.93;9.30;;;21.40;74.10;;;;;;5026741;28;20526;-78
2022/07/22 05:54:14;;;;;;;16.20;9.60;;;21.50;74.20;;;;;;5024522;28;20464;-79
2022/07/22 05:56:42;;;;;;;17.37;11.00;;;21.70;74.30;;;;;;5020396;28;20575;-78
2022/07/22 05:59:11;;;;;;;14.33;10.47;;;21.80;74.10;;;;;;5023672;28;20457;-78
2022/07/22 06:01:40;;;;;;;14.03;10.73;;;21.90;74.00;;;;;;5021865;28;20950;-79
2022/07/22 06:04:27;;;;;;;15.93;11.73;;;21.90;73.80;;;;;;5030434;28;20518;-78
2022/07/22 06:06:55;;;;;;;14.87;11.17;;;21.80;73.40;;;;;;5009500;28;20533;-78
2022/07/22 06:09:23;;;;;;;15.70;9.90;;;21.80;73.50;;;;;;4999486;28;20985;-78
2022/07/22 06:11:51;;;;;;;12.43;10.53;;;21.80;73.70;;;;;;5024495;28;20452;-78
2022/07/22 06:14:20;;;;;;;12.83;9.90;;;21.90;74.00;;;;;;5028706;28;20467;-78
2022/07/22 06:16:52;;;;;;;15.93;9.97;;;22.00;73.80;;;;;;5011748;28;21296;-78
2022/07/22 06:19:20;;;;;;;13.67;10.73;;;22.10;73.50;;;;;;5003269;28;20551;-78
2022/07/22 06:21:48;;;;;;;17.10;11.07;;;22.10;73.30;;;;;;5018929;28;20504;-78
2022/07/22 06:24:17;;;;;;;16.43;11.10;;;22.20;73.30;;;;;;5009652;28;20822;-78
2022/07/22 06:26:45;;;;;;;13.90;10.70;;;22.20;73.00;;;;;;5025252;28;21016;-78
2022/07/22 06:29:14;;;;;;;16.50;11.17;;;22.20;73.20;;;;;;4995687;28;20542;-78
2022/07/22 06:31:42;;;;;;;13.50;10.17;;;22.30;73.20;;;;;;5010121;28;20896;-78
2022/07/22 06:34:11;;;;;;;15.73;10.07;;;22.30;72.80;;;;;;5005451;28;20470;-78
2022/07/22 06:36:54;;;;;;;13.00;10.20;;;22.20;72.80;;;;;;5007005;28;21307;-79
2022/07/22 06:39:22;;;;;;;14.57;10.60;;;22.20;72.90;;;;;;5029423;28;20488;-79
2022/07/22 06:42:23;;;;;;;14.80;9.83;;;22.20;72.90;;;;;;5019000;28;20459;-78
2022/07/22 06:45:10;;;;;;;13.40;10.33;;;22.30;72.80;;;;;;5022556;28;20464;-78
2022/07/22 06:47:57;;;;;;;13.93;10.67;;;22.30;72.90;;;;;;5023198;28;20468;-78
2022/07/22 06:50:27;;;;;;;14.03;10.27;;;22.30;72.90;;;;;;5021003;28;20454;-78
2022/07/22 06:52:56;;;;;;;15.87;11.17;;;22.30;72.90;;;;;;5019930;28;20453;-78
2022/07/22 06:55:24;;;;;;;15.60;10.00;;;22.20;72.80;;;;;;5009947;28;20995;-78
2022/07/22 06:58:04;;;;;;;12.30;9.23;;;22.10;72.80;;;;;;5008905;28;20476;-79
2022/07/22 07:00:32;;;;;;;12.77;8.80;;;22.10;72.90;;;;;;5023247;28;20488;-79
2022/07/22 07:03:20;;;;;;;13.80;9.33;;;22.10;73.00;;;;;;5011182;28;20472;-78
2022/07/22 07:06:08;;;;;;;11.50;9.30;;;22.10;73.00;;;;;;5024090;28;20531;-78
2022/07/22 07:08:57;;;;;;;13.10;9.40;;;22.10;73.10;;;;;;5025427;28;20453;-78
2022/07/22 07:11:27;;;;;;;12.60;8.43;;;22.20;73.10;;;;;;5004615;28;20545;-78
2022/07/22 07:13:56;;;;;;;11.07;8.37;;;22.30;73.10;;;;;;5006536;28;20503;-78
2022/07/22 07:16:23;;;;;;;12.03;8.70;;;22.30;73.00;;;;;;5009312;28;21001;-78
2022/07/22 07:18:52;;;;;;;14.23;9.33;;;22.30;72.90;;;;;;5013279;28;20473;-78
2022/07/22 07:21:21;;;;;;;13.27;9.77;;;22.40;72.90;;;;;;5020166;28;20510;-78
2022/07/22 07:23:49;;;;;;;13.10;8.70;;;22.40;72.90;;;;;;5022047;28;20448;-78
2022/07/22 07:26:19;;;;;;;12.17;8.60;;;22.50;72.90;;;;;;5022707;28;20570;-79
2022/07/22 07:28:48;;;;;;;11.40;8.13;;;22.50;72.70;;;;;;5022081;28;20957;-78
2022/07/22 07:31:26;;;;;;;10.90;7.80;;;22.60;72.40;;;;;;5016015;28;20468;-79
2022/07/22 07:33:54;;;;;;;10.30;6.67;;;22.60;72.40;;;;;;5033788;28;20538;-78
2022/07/22 07:36:24;;;;;;;10.63;7.20;;;22.60;72.40;;;;;;5013443;28;20477;-78
2022/07/22 07:38:52;;;;;;;9.33;7.53;;;22.70;72.30;;;;;;5029037;28;20499;-78
2022/07/22 07:41:21;;;;;;;11.03;8.40;;;22.70;72.20;;;;;;5024652;28;21044;-78
2022/07/22 07:43:51;;;;;;;11.10;8.47;;;22.80;72.00;;;;;;5012749;28;20462;-78
2022/07/22 07:46:26;;;;;;;10.73;8.30;;;22.80;71.90;;;;;;5023803;28;20952;-78
2022/07/22 07:48:54;;;;;;;12.80;7.50;;;22.70;71.90;;;;;;5018171;28;20970;-78
2022/07/22 07:51:24;;;;;;;13.07;8.40;;;22.70;71.80;;;;;;5036627;28;20464;-78
2022/07/22 07:53:53;;;;;;;11.07;8.23;;;22.70;71.90;;;;;;5017827;28;20461;-79
2022/07/22 07:56:23;;;;;;;9.30;7.10;;;22.80;71.80;;;;;;5037181;28;20492;-78
2022/07/22 07:58:51;;;;;;;11.77;7.63;;;22.80;71.90;;;;;;5028138;28;20496;-78
2022/07/22 08:01:40;;;;;;;12.43;8.40;;;22.80;71.90;;;;;;5018358;28;20481;-78
2022/07/22 08:04:25;;;;;;;12.93;8.00;;;22.90;71.80;;;;;;4998803;28;20460;-79
2022/07/22 08:07:12;;;;;;;9.17;7.07;;;22.90;71.80;;;;;;5016924;28;20546;-78
2022/07/22 08:09:42;;;;;;;11.07;7.73;;;23.00;71.90;;;;;;5022843;28;20471;-78
2022/07/22 08:12:25;;;;;;;11.30;7.30;;;23.00;71.80;;;;;;5009648;28;20459;-78
2022/07/22 08:15:19;;;;;;;13.17;8.60;;;23.10;71.70;;;;;;5017494;28;20492;-78
2022/07/22 08:17:53;;;;;;;9.90;7.17;;;23.20;71.50;;;;;;5007590;28;20482;-78
2022/07/22 08:20:23;;;;;;;12.03;7.90;;;23.20;71.50;;;;;;5027025;28;20600;-78
2022/07/22 08:22:53;;;;;;;10.97;7.00;;;23.20;71.40;;;;;;5023552;28;20476;-79
2022/07/22 08:25:23;;;;;;;9.10;7.50;;;23.20;71.30;;;;;;5022771;28;20466;-79
2022/07/22 08:27:51;;;;;;;12.13;7.83;;;23.30;71.30;;;;;;5014689;28;20476;-79
2022/07/22 08:30:20;;;;;;;10.87;7.10;;;23.20;71.20;;;;;;5018507;28;20514;-78
2022/07/22 08:32:48;;;;;;;9.30;6.70;;;23.20;71.10;;;;;;5008784;28;20472;-78
2022/07/22 08:35:18;;;;;;;10.40;8.13;;;23.20;71.20;;;;;;5012405;28;20463;-79
2022/07/22 08:37:47;;;;;;;10.30;7.77;;;23.30;71.10;;;;;;5017643;28;20523;-78
2022/07/22 08:40:18;;;;;;;9.57;6.40;;;23.40;71.10;;;;;;5020221;28;20542;-78
2022/07/22 08:42:49;;;;;;;14.80;7.70;;;23.40;71.00;;;;;;5012983;28;20515;-78
2022/07/22 08:45:19;;;;;;;9.43;7.07;;;23.50;70.80;;;;;;5024665;28;21291;-78
2022/07/22 08:47:50;;;;;;;11.87;7.23;;;23.50;70.60;;;;;;5006671;28;20492;-78
2022/07/22 08:50:33;;;;;;;11.27;7.10;;;23.50;70.60;;;;;;5001250;28;20501;-79
2022/07/22 08:53:05;;;;;;;10.00;6.97;;;23.60;70.60;;;;;;5008223;28;20455;-78
2022/07/22 08:55:40;;;;;;;10.53;6.90;;;23.60;70.50;;;;;;5015344;28;20481;-78
2022/07/22 08:58:08;;;;;;;10.30;6.90;;;23.60;70.40;;;;;;5014933;28;20468;-78
2022/07/22 09:00:36;;;;;;;12.10;7.93;;;23.70;70.40;;;;;;5003122;28;20481;-79
2022/07/22 09:03:20;;;;;;;13.10;7.13;;;23.80;70.20;;;;;;5022586;28;20486;-78
2022/07/22 09:05:49;;;;;;;11.87;6.20;;;23.80;70.20;;;;;;5008071;28;20461;-79
2022/07/22 09:08:18;;;;;;;11.77;8.13;;;23.90;70.10;;;;;;5016384;28;20825;-79
2022/07/22 09:11:20;;;;;;;9.13;6.93;;;24.00;69.90;;;;;;5018908;28;20483;-78
2022/07/22 09:14:10;;;;;;;11.47;6.53;;;24.00;69.80;;;;;;5010516;28;20498;-79
2022/07/22 09:16:50;;;;;;;13.50;7.00;;;24.10;69.70;;;;;;5011723;28;20477;-78
2022/07/22 09:19:33;;;;;;;10.93;6.70;;;24.20;69.60;;;;;;5011175;28;20549;-78
2022/07/22 09:22:35;;;;;;;8.90;6.30;;;24.20;69.50;;;;;;5022608;28;20478;-79
2022/07/22 09:25:25;;;;;;;13.63;7.27;;;24.30;68.90;;;;;;5014268;28;20529;-78
2022/07/22 09:28:24;;;;;;;11.27;6.67;;;24.30;69.00;;;;;;5028335;28;20973;-78
2022/07/22 09:31:25;;;;;;;9.47;6.70;;;24.30;69.10;;;;;;5024715;28;20485;-79
2022/07/22 09:34:02;;;;;;;10.17;7.03;;;24.30;68.90;;;;;;5001701;28;20470;-78
2022/07/22 09:36:31;;;;;;;9.93;6.60;;;24.40;68.70;;;;;;5000488;28;20490;-79
2022/07/22 09:38:59;;;;;;;10.53;6.13;;;24.40;68.70;;;;;;5013972;28;20526;-79
2022/07/22 09:41:28;;;;;;;8.77;6.90;;;24.50;68.50;;;;;;5028171;28;20465;-78
2022/07/22 09:43:58;;;;;;;10.47;6.70;;;24.50;68.40;;;;;;5030476;28;20455;-78
2022/07/22 09:46:38;;;;;;;10.50;6.57;;;24.60;68.20;;;;;;5010764;28;20532;-78
2022/07/22 09:49:35;;;;;;;11.90;7.50;;;24.60;68.00;;;;;;5017847;28;20547;-78
2022/07/22 09:52:22;;;;;;;11.17;7.20;;;24.70;67.80;;;;;;5022837;28;21139;-78
2022/07/22 09:55:02;;;;;;;10.67;7.90;;;24.70;67.60;;;;;;5006875;28;20482;-78
2022/07/22 09:57:35;;;;;;;8.80;6.40;;;24.80;67.50;;;;;;5032493;28;20491;-78
2022/07/22 10:00:08;;;;;;;11.07;7.37;;;24.80;67.50;;;;;;5011119;28;20464;-78
2022/07/22 10:02:48;;;;;;;9.87;7.37;;;24.90;67.30;;;;;;5011398;28;20566;-78
2022/07/22 10:05:20;;;;;;;9.83;6.90;;;24.90;67.00;;;;;;5008989;28;20459;-78
2022/07/22 10:07:49;;;;;;;11.37;6.97;;;25.00;66.80;;;;;;5030714;28;20972;-78
2022/07/22 10:10:19;;;;;;;10.27;7.70;;;25.00;66.60;;;;;;5028257;28;20467;-78
2022/07/22 10:12:50;;;;;;;10.80;7.20;;;25.00;66.40;;;;;;5024102;28;20503;-78
2022/07/22 10:15:20;;;;;;;11.67;6.93;;;25.10;66.40;;;;;;5006556;28;20896;-78
2022/07/22 10:17:50;;;;;;;14.70;8.17;;;25.10;66.30;;;;;;5019921;28;20518;-78
2022/07/22 10:20:20;;;;;;;10.33;7.13;;;25.10;66.30;;;;;;5015001;28;20472;-78
2022/07/22 10:22:51;;;;;;;12.47;7.37;;;25.20;66.20;;;;;;5006914;28;20489;-78
2022/07/22 10:25:29;;;;;;;9.63;6.13;;;25.30;66.00;;;;;;5011084;28;21171;-78
2022/07/22 10:28:02;;;;;;;12.30;7.93;;;25.30;65.80;;;;;;5002527;28;20575;-78
2022/07/22 10:30:33;;;;;;;11.23;6.70;;;25.30;65.50;;;;;;5022882;28;20552;-78
2022/07/22 10:33:07;;;;;;;8.87;7.03;;;25.40;65.20;;;;;;5023013;28;20967;-78
2022/07/22 10:35:37;;;;;;;9.83;7.70;;;25.40;65.10;;;;;;5020785;28;20636;-79
2022/07/22 10:38:08;;;;;;;19.00;7.63;;;25.40;65.10;;;;;;5028641;28;20580;-79
2022/07/22 10:40:51;;;;;;;9.13;6.93;;;25.50;65.10;;;;;;5008550;28;20463;-78
2022/07/22 10:43:21;;;;;;;9.90;6.93;;;25.60;64.80;;;;;;5007197;28;20483;-78
2022/07/22 10:45:53;;;;;;;10.33;7.20;;;25.60;64.80;;;;;;5019567;28;20483;-78
2022/07/22 10:48:24;;;;;;;9.53;7.10;;;25.70;64.50;;;;;;5018799;28;20445;-78
2022/07/22 10:51:06;;;;;;;12.00;7.97;;;25.70;64.30;;;;;;5023302;28;21171;-78
2022/07/22 10:53:43;;;;;;;9.73;7.40;;;25.80;63.90;;;;;;5022331;28;20559;-78
2022/07/22 10:56:20;;;;;;;14.63;7.57;;;25.80;63.80;;;;;;5019958;28;20485;-78
2022/07/22 10:59:00;;;;;;;12.10;6.90;;;25.80;63.60;;;;;;5020354;28;20459;-78
2022/07/22 11:01:32;;;;;;;12.63;7.60;;;25.80;63.50;;;;;;5024137;28;20487;-78
2022/07/22 11:04:14;;;;;;;9.90;7.00;;;25.90;63.20;;;;;;5023368;28;20486;-78
2022/07/22 11:06:47;;;;;;;9.43;7.07;;;26.00;63.20;;;;;;5015744;28;20873;-78
2022/07/22 11:09:17;;;;;;;10.87;6.93;;;26.10;63.10;;;;;;5019549;28;21391;-78
2022/07/22 11:11:47;;;;;;;12.37;7.83;;;26.10;62.90;;;;;;5020152;28;20754;-78
2022/07/22 11:14:24;;;;;;;10.60;7.03;;;26.20;62.60;;;;;;5022975;28;20453;-78
2022/07/22 11:16:54;;;;;;;10.33;7.50;;;26.20;62.30;;;;;;5006644;28;20501;-78
2022/07/22 11:19:24;;;;;;;10.17;7.00;;;26.30;62.20;;;;;;5024624;28;20471;-78
2022/07/22 11:21:54;;;;;;;11.37;7.53;;;26.30;62.00;;;;;;5000071;28;20811;-78
2022/07/22 11:24:24;;;;;;;11.23;7.53;;;26.40;61.90;;;;;;5019146;28;20478;-78
2022/07/22 11:26:53;;;;;;;10.67;7.50;;;26.40;61.90;;;;;;5016769;28;21010;-78
2022/07/22 11:29:26;;;;;;;9.00;7.03;;;26.40;61.70;;;;;;5018788;28;20460;-78
2022/07/22 11:31:57;;;;;;;9.87;7.27;;;26.40;61.40;;;;;;5022232;28;20505;-78
2022/07/22 11:34:27;;;;;;;12.50;7.37;;;26.40;61.40;;;;;;5020703;28;20470;-78
2022/07/22 11:36:57;;;;;;;11.00;7.73;;;26.50;61.40;;;;;;5024865;28;20481;-78
2022/07/22 11:39:29;;;;;;;17.00;7.73;;;26.50;61.20;;;;;;5019510;28;20464;-78
2022/07/22 11:41:59;;;;;;;10.93;8.00;;;26.50;61.00;;;;;;5017208;28;20468;-78
2022/07/22 11:44:35;;;;;;;9.87;6.50;;;26.60;61.20;;;;;;5022758;28;20484;-78
2022/07/22 11:47:05;;;;;;;10.87;7.10;;;26.60;61.10;;;;;;5022157;28;20505;-78
2022/07/22 11:49:36;;;;;;;10.97;6.80;;;26.70;61.10;;;;;;5030788;28;20999;-78
2022/07/22 11:56:16;;;;;;;10.67;6.80;;;26.90;60.90;;;;;;5021782;28;20528;-78
2022/07/22 11:58:46;;;;;;;11.10;7.43;;;26.90;60.60;;;;;;5021577;28;20492;-78
2022/07/22 12:01:15;;;;;;;11.43;8.33;;;27.00;60.40;;;;;;5020117;28;20482;-76
2022/07/22 12:03:46;;;;;;;10.10;7.57;;;27.10;60.20;;;;;;5019946;28;20479;-77
2022/07/22 12:06:16;;;;;;;9.43;7.40;;;27.00;59.90;;;;;;5022834;28;20487;-76
2022/07/22 12:08:55;;;;;;;11.00;7.27;;;27.10;59.90;;;;;;5022541;28;20455;-79
2022/07/22 12:11:25;;;;;;;11.83;6.80;;;27.10;59.80;;;;;;5021798;28;21004;-79
2022/07/22 12:13:54;;;;;;;12.90;7.10;;;27.10;59.70;;;;;;5022949;28;20516;-79
2022/07/22 12:16:26;;;;;;;9.07;6.87;;;27.10;59.60;;;;;;5022786;28;20487;-78
2022/07/22 12:18:58;;;;;;;14.60;8.37;;;27.20;59.50;;;;;;5018015;28;20466;-78
2022/07/22 12:21:28;;;;;;;10.33;7.50;;;27.20;59.30;;;;;;5016080;28;20463;-78
2022/07/22 12:23:58;;;;;;;12.60;8.07;;;27.20;59.20;;;;;;5018448;28;21292;-78
2022/07/22 12:26:41;;;;;;;10.30;7.53;;;27.20;59.30;;;;;;5022666;28;20484;-78
2022/07/22 12:29:49;;;;;;;16.20;8.00;;;27.30;59.10;;;;;;4968237;28;20603;-78
2022/07/22 12:32:52;;;;;;;10.50;7.00;;;27.40;59.00;;;;;;4968775;28;20654;-78
2022/07/22 12:35:22;;;;;;;10.50;7.57;;;27.40;59.00;;;;;;4962020;28;20973;-78
2022/07/22 12:37:50;;;;;;;16.73;7.70;;;27.50;59.10;;;;;;4959694;28;20497;-78
2022/07/22 12:40:20;;;;;;;9.83;7.07;;;27.60;59.00;;;;;;4967852;28;20466;-78
2022/07/22 12:43:02;;;;;;;10.83;7.53;;;27.70;58.90;;;;;;4950278;28;20475;-78
2022/07/22 12:45:31;;;;;;;9.60;6.60;;;27.80;58.80;;;;;;4938212;28;21005;-78
2022/07/22 12:48:08;;;;;;;10.00;7.23;;;27.90;58.70;;;;;;4965208;28;20484;-78
2022/07/22 12:50:39;;;;;;;10.07;7.70;;;27.90;58.30;;;;;;4963454;28;20469;-79
2022/07/22 12:53:09;;;;;;;10.20;7.57;;;28.00;58.20;;;;;;4969170;28;21065;-78
2022/07/22 12:55:45;;;;;;;16.77;8.90;;;28.00;58.10;;;;;;4967964;28;21238;-78
2022/07/22 12:58:14;;;;;;;14.23;8.47;;;28.00;58.00;;;;;;4967889;28;20474;-78
2022/07/22 13:00:45;;;;;;;13.43;7.50;;;28.00;57.70;;;;;;5008107;28;20494;-79